sensor_id;sensor_type;location;lat;lon;timestamp;temperature;humidity
14473;DHT22;7322;50.872;4.386;2023-07-16T00:01:32;27.20;99.90
14473;DHT22;7322;50.872;4.386;2023-07-16T00:04:01;27.20;99.90
14473;DHT22;7322;50.872;4.386;2023-07-16T00:06:28;27.20;99.90
14473;DHT22;7322;50.872;4.386;2023-07-16T00:08:55;27.20;99.90
14473;DHT22;7322;50.872;4.386;2023-07-16T00:11:22;27.20;99.90
14473;DHT22;7322;50.872;4.386;2023-07-16T00:13:51;27.20;99.90
14473;DHT22;7322;50.872;4.386;2023-07-16T00:16:19;27.20;99.90
14473;DHT22;7322;50.872;4.386;2023-07-16T00:18:46;27.20;99.90
14473;DHT22;7322;50.872;4.386;2023-07-16T00:21:14;27.10;99.90
14473;DHT22;7322;50.872;4.386;2023-07-16T00:23:41;27.20;99.90
14473;DHT22;7322;50.872;4.386;2023-07-16T00:26:08;27.20;99.90
14473;DHT22;7322;50.872;4.386;2023-07-16T00:28:35;27.10;99.90
14473;DHT22;7322;50.872;4.386;2023-07-16T00:31:02;27.10;99.90
14473;DHT22;7322;50.872;4.386;2023-07-16T00:33:29;27.20;99.90
14473;DHT22;7322;50.872;4.386;2023-07-16T00:35:56;27.20;99.90
14473;DHT22;7322;50.872;4.386;2023-07-16T00:38:25;27.10;99.90
14473;DHT22;7322;50.872;4.386;2023-07-16T00:40:52;27.10;99.90
14473;DHT22;7322;50.872;4.386;2023-07-16T00:43:19;27.10;99.90
14473;DHT22;7322;50.872;4.386;2023-07-16T00:45:46;27.10;99.90
14473;DHT22;7322;50.872;4.386;2023-07-16T00:48:13;27.10;99.90
14473;DHT22;7322;50.872;4.386;2023-07-16T00:50:41;27.20;99.90
14473;DHT22;7322;50.872;4.386;2023-07-16T00:53:08;27.10;99.90
14473;DHT22;7322;50.872;4.386;2023-07-16T00:55:37;27.20;99.90
14473;DHT22;7322;50.872;4.386;2023-07-16T00:58:06;27.10;99.90
14473;DHT22;7322;50.872;4.386;2023-07-16T01:00:34;27.10;99.90
14473;DHT22;7322;50.872;4.386;2023-07-16T01:03:01;27.10;99.90
14473;DHT22;7322;50.872;4.386;2023-07-16T01:05:36;27.10;99.90
14473;DHT22;7322;50.872;4.386;2023-07-16T01:08:09;27.20;99.90
14473;DHT22;7322;50.872;4.386;2023-07-16T01:10:38;27.10;99.90
14473;DHT22;7322;50.872;4.386;2023-07-16T01:13:07;27.10;99.90
14473;DHT22;7322;50.872;4.386;2023-07-16T01:15:34;27.10;99.90
14473;DHT22;7322;50.872;4.386;2023-07-16T01:18:03;27.10;99.90
14473;DHT22;7322;50.872;4.386;2023-07-16T01:20:30;27.10;99.90
14473;DHT22;7322;50.872;4.386;2023-07-16T01:23:14;27.00;99.90
14473;DHT22;7322;50.872;4.386;2023-07-16T01:26:08;27.10;99.90
14473;DHT22;7322;50.872;4.386;2023-07-16T01:29:17;27.10;99.90
14473;DHT22;7322;50.872;4.386;2023-07-16T01:31:46;27.00;99.90
14473;DHT22;7322;50.872;4.386;2023-07-16T01:34:14;26.90;99.90
14473;DHT22;7322;50.872;4.386;2023-07-16T01:36:42;26.90;99.90
14473;DHT22;7322;50.872;4.386;2023-07-16T01:39:09;27.00;99.90
14473;DHT22;7322;50.872;4.386;2023-07-16T01:41:36;26.90;99.90
14473;DHT22;7322;50.872;4.386;2023-07-16T01:44:03;26.90;99.90
14473;DHT22;7322;50.872;4.386;2023-07-16T01:46:32;26.90;99.90
14473;DHT22;7322;50.872;4.386;2023-07-16T01:48:59;26.90;99.90
14473;DHT22;7322;50.872;4.386;2023-07-16T01:51:26;26.90;99.90
14473;DHT22;7322;50.872;4.386;2023-07-16T01:53:53;26.90;99.90
14473;DHT22;7322;50.872;4.386;2023-07-16T01:56:20;26.90;99.90
14473;DHT22;7322;50.872;4.386;2023-07-16T01:58:47;26.90;99.90
14473;DHT22;7322;50.872;4.386;2023-07-16T02:01:15;26.90;99.90
14473;DHT22;7322;50.872;4.386;2023-07-16T02:03:43;27.00;99.90
14473;DHT22;7322;50.872;4.386;2023-07-16T02:06:10;26.90;99.80
14473;DHT22;7322;50.872;4.386;2023-07-16T02:08:39;26.90;99.80
14473;DHT22;7322;50.872;4.386;2023-07-16T02:11:06;26.90;99.70
14473;DHT22;7322;50.872;4.386;2023-07-16T02:13:33;26.90;99.50
14473;DHT22;7322;50.872;4.386;2023-07-16T02:16:00;26.90;99.50
14473;DHT22;7322;50.872;4.386;2023-07-16T02:18:27;26.90;99.40
14473;DHT22;7322;50.872;4.386;2023-07-16T02:20:55;26.90;99.40
14473;DHT22;7322;50.872;4.386;2023-07-16T02:23:22;26.90;99.20
14473;DHT22;7322;50.872;4.386;2023-07-16T02:25:49;26.90;99.20
14473;DHT22;7322;50.872;4.386;2023-07-16T02:28:16;26.90;99.20
14473;DHT22;7322;50.872;4.386;2023-07-16T02:30:43;26.80;99.00
14473;DHT22;7322;50.872;4.386;2023-07-16T02:33:11;26.90;99.10
14473;DHT22;7322;50.872;4.386;2023-07-16T02:35:38;26.90;99.10
14473;DHT22;7322;50.872;4.386;2023-07-16T02:38:06;26.80;98.80
14473;DHT22;7322;50.872;4.386;2023-07-16T02:40:33;26.80;98.90
14473;DHT22;7322;50.872;4.386;2023-07-16T02:43:00;26.80;98.80
14473;DHT22;7322;50.872;4.386;2023-07-16T02:45:27;26.80;98.70
14473;DHT22;7322;50.872;4.386;2023-07-16T02:47:54;26.80;98.70
14473;DHT22;7322;50.872;4.386;2023-07-16T02:50:21;26.80;98.70
14473;DHT22;7322;50.872;4.386;2023-07-16T02:52:48;26.80;98.50
14473;DHT22;7322;50.872;4.386;2023-07-16T02:55:17;26.80;98.40
14473;DHT22;7322;50.872;4.386;2023-07-16T02:57:44;26.80;98.40
14473;DHT22;7322;50.872;4.386;2023-07-16T03:00:11;26.80;98.40
14473;DHT22;7322;50.872;4.386;2023-07-16T03:02:38;26.80;98.30
14473;DHT22;7322;50.872;4.386;2023-07-16T03:05:08;26.80;98.20
14473;DHT22;7322;50.872;4.386;2023-07-16T03:07:35;26.80;98.10
14473;DHT22;7322;50.872;4.386;2023-07-16T03:10:02;26.80;98.10
14473;DHT22;7322;50.872;4.386;2023-07-16T03:12:31;26.80;98.00
14473;DHT22;7322;50.872;4.386;2023-07-16T03:14:58;26.80;98.00
14473;DHT22;7322;50.872;4.386;2023-07-16T03:17:24;26.80;98.00
14473;DHT22;7322;50.872;4.386;2023-07-16T03:19:51;26.80;97.90
14473;DHT22;7322;50.872;4.386;2023-07-16T03:22:18;26.80;97.80
14473;DHT22;7322;50.872;4.386;2023-07-16T03:24:45;26.80;97.80
14473;DHT22;7322;50.872;4.386;2023-07-16T03:27:12;26.70;97.80
14473;DHT22;7322;50.872;4.386;2023-07-16T03:29:41;26.70;97.70
14473;DHT22;7322;50.872;4.386;2023-07-16T03:32:08;26.70;97.70
14473;DHT22;7322;50.872;4.386;2023-07-16T03:34:35;26.70;97.60
14473;DHT22;7322;50.872;4.386;2023-07-16T03:37:02;26.70;97.60
14473;DHT22;7322;50.872;4.386;2023-07-16T03:39:29;26.70;97.60
14473;DHT22;7322;50.872;4.386;2023-07-16T03:41:56;26.70;97.50
14473;DHT22;7322;50.872;4.386;2023-07-16T03:44:23;26.70;97.50
14473;DHT22;7322;50.872;4.386;2023-07-16T03:46:52;26.70;97.50
14473;DHT22;7322;50.872;4.386;2023-07-16T03:49:19;26.70;97.40
14473;DHT22;7322;50.872;4.386;2023-07-16T03:51:47;26.70;97.50
14473;DHT22;7322;50.872;4.386;2023-07-16T03:54:14;26.70;97.40
14473;DHT22;7322;50.872;4.386;2023-07-16T03:56:41;26.70;97.50
14473;DHT22;7322;50.872;4.386;2023-07-16T03:59:08;26.70;97.40
14473;DHT22;7322;50.872;4.386;2023-07-16T04:01:35;26.70;97.40
14473;DHT22;7322;50.872;4.386;2023-07-16T04:04:04;26.70;97.40
14473;DHT22;7322;50.872;4.386;2023-07-16T04:06:31;26.70;97.40
14473;DHT22;7322;50.872;4.386;2023-07-16T04:08:58;26.70;97.40
14473;DHT22;7322;50.872;4.386;2023-07-16T04:11:25;26.70;97.40
14473;DHT22;7322;50.872;4.386;2023-07-16T04:13:52;26.70;97.30
14473;DHT22;7322;50.872;4.386;2023-07-16T04:16:20;26.70;97.30
14473;DHT22;7322;50.872;4.386;2023-07-16T04:18:47;26.70;97.30
14473;DHT22;7322;50.872;4.386;2023-07-16T04:21:15;26.60;97.20
14473;DHT22;7322;50.872;4.386;2023-07-16T04:23:42;26.60;97.20
14473;DHT22;7322;50.872;4.386;2023-07-16T04:26:09;26.60;97.30
14473;DHT22;7322;50.872;4.386;2023-07-16T04:28:36;26.60;97.20
14473;DHT22;7322;50.872;4.386;2023-07-16T04:31:04;26.60;97.20
14473;DHT22;7322;50.872;4.386;2023-07-16T04:33:31;26.60;97.20
14473;DHT22;7322;50.872;4.386;2023-07-16T04:35:58;26.60;97.20
14473;DHT22;7322;50.872;4.386;2023-07-16T04:38:28;26.60;97.20
14473;DHT22;7322;50.872;4.386;2023-07-16T04:40:55;26.60;97.20
14473;DHT22;7322;50.872;4.386;2023-07-16T04:43:21;26.60;97.20
14473;DHT22;7322;50.872;4.386;2023-07-16T04:45:48;26.60;97.20
14473;DHT22;7322;50.872;4.386;2023-07-16T04:48:15;26.60;97.20
14473;DHT22;7322;50.872;4.386;2023-07-16T04:50:42;26.60;97.20
14473;DHT22;7322;50.872;4.386;2023-07-16T04:53:09;26.60;97.20
14473;DHT22;7322;50.872;4.386;2023-07-16T04:55:38;26.60;97.10
14473;DHT22;7322;50.872;4.386;2023-07-16T04:58:06;26.50;97.20
14473;DHT22;7322;50.872;4.386;2023-07-16T05:00:33;26.50;97.20
14473;DHT22;7322;50.872;4.386;2023-07-16T05:03:00;26.60;97.30
14473;DHT22;7322;50.872;4.386;2023-07-16T05:05:27;26.60;97.10
14473;DHT22;7322;50.872;4.386;2023-07-16T05:08:00;26.50;97.20
14473;DHT22;7322;50.872;4.386;2023-07-16T05:10:28;26.60;97.30
14473;DHT22;7322;50.872;4.386;2023-07-16T05:13:02;26.60;97.10
14473;DHT22;7322;50.872;4.386;2023-07-16T05:15:32;26.60;97.20
14473;DHT22;7322;50.872;4.386;2023-07-16T05:17:59;26.60;97.30
14473;DHT22;7322;50.872;4.386;2023-07-16T05:20:28;26.50;97.20
14473;DHT22;7322;50.872;4.386;2023-07-16T05:22:55;26.50;97.20
14473;DHT22;7322;50.872;4.386;2023-07-16T05:25:29;26.50;97.20
14473;DHT22;7322;50.872;4.386;2023-07-16T05:28:13;26.60;97.30
14473;DHT22;7322;50.872;4.386;2023-07-16T05:30:40;26.60;97.20
14473;DHT22;7322;50.872;4.386;2023-07-16T05:33:08;26.50;97.20
14473;DHT22;7322;50.872;4.386;2023-07-16T05:35:35;26.60;97.30
14473;DHT22;7322;50.872;4.386;2023-07-16T05:38:05;26.60;97.30
14473;DHT22;7322;50.872;4.386;2023-07-16T05:40:35;26.60;97.30
14473;DHT22;7322;50.872;4.386;2023-07-16T05:43:10;26.60;97.30
14473;DHT22;7322;50.872;4.386;2023-07-16T05:45:42;26.60;97.30
14473;DHT22;7322;50.872;4.386;2023-07-16T05:48:17;26.50;97.30
14473;DHT22;7322;50.872;4.386;2023-07-16T05:50:44;26.60;97.40
14473;DHT22;7322;50.872;4.386;2023-07-16T05:53:11;26.50;97.40
14473;DHT22;7322;50.872;4.386;2023-07-16T05:55:39;26.50;97.40
14473;DHT22;7322;50.872;4.386;2023-07-16T05:58:17;26.50;97.50
14473;DHT22;7322;50.872;4.386;2023-07-16T06:00:47;26.50;97.60
14473;DHT22;7322;50.872;4.386;2023-07-16T06:03:21;26.50;97.60
14473;DHT22;7322;50.872;4.386;2023-07-16T06:05:48;26.50;97.60
14473;DHT22;7322;50.872;4.386;2023-07-16T06:08:14;26.40;97.60
14473;DHT22;7322;50.872;4.386;2023-07-16T06:10:41;26.40;97.60
14473;DHT22;7322;50.872;4.386;2023-07-16T06:13:08;26.40;97.60
14473;DHT22;7322;50.872;4.386;2023-07-16T06:15:36;26.40;97.70
14473;DHT22;7322;50.872;4.386;2023-07-16T06:18:05;26.50;97.80
14473;DHT22;7322;50.872;4.386;2023-07-16T06:20:31;26.50;97.80
14473;DHT22;7322;50.872;4.386;2023-07-16T06:22:58;26.50;97.80
14473;DHT22;7322;50.872;4.386;2023-07-16T06:25:25;26.40;97.80
14473;DHT22;7322;50.872;4.386;2023-07-16T06:27:53;26.50;97.90
14473;DHT22;7322;50.872;4.386;2023-07-16T06:30:20;26.50;98.00
14473;DHT22;7322;50.872;4.386;2023-07-16T06:32:47;26.50;98.00
14473;DHT22;7322;50.872;4.386;2023-07-16T06:35:28;26.50;98.10
14473;DHT22;7322;50.872;4.386;2023-07-16T06:38:12;26.60;98.10
14473;DHT22;7322;50.872;4.386;2023-07-16T06:40:47;26.60;98.10
14473;DHT22;7322;50.872;4.386;2023-07-16T06:43:15;26.60;98.10
14473;DHT22;7322;50.872;4.386;2023-07-16T06:45:43;26.50;98.20
14473;DHT22;7322;50.872;4.386;2023-07-16T06:48:10;26.50;98.10
14473;DHT22;7322;50.872;4.386;2023-07-16T06:50:38;26.40;98.10
14473;DHT22;7322;50.872;4.386;2023-07-16T06:53:05;26.40;98.20
14473;DHT22;7322;50.872;4.386;2023-07-16T06:55:32;26.50;98.30
14473;DHT22;7322;50.872;4.386;2023-07-16T06:58:00;26.40;98.20
14473;DHT22;7322;50.872;4.386;2023-07-16T07:00:27;26.40;98.10
14473;DHT22;7322;50.872;4.386;2023-07-16T07:02:54;26.30;98.20
14473;DHT22;7322;50.872;4.386;2023-07-16T07:05:22;26.40;98.30
14473;DHT22;7322;50.872;4.386;2023-07-16T07:07:50;26.40;98.20
14473;DHT22;7322;50.872;4.386;2023-07-16T07:10:17;26.40;98.30
14473;DHT22;7322;50.872;4.386;2023-07-16T07:12:44;26.40;98.20
14473;DHT22;7322;50.872;4.386;2023-07-16T07:15:19;26.40;98.20
14473;DHT22;7322;50.872;4.386;2023-07-16T07:17:46;26.40;98.20
14473;DHT22;7322;50.872;4.386;2023-07-16T07:20:14;26.30;98.20
14473;DHT22;7322;50.872;4.386;2023-07-16T07:22:41;26.40;98.30
14473;DHT22;7322;50.872;4.386;2023-07-16T07:25:10;26.40;98.30
14473;DHT22;7322;50.872;4.386;2023-07-16T07:27:37;26.40;98.30
14473;DHT22;7322;50.872;4.386;2023-07-16T07:30:04;26.40;98.40
14473;DHT22;7322;50.872;4.386;2023-07-16T07:32:32;26.40;98.40
14473;DHT22;7322;50.872;4.386;2023-07-16T07:34:59;26.40;98.50
14473;DHT22;7322;50.872;4.386;2023-07-16T07:37:26;26.50;98.50
14473;DHT22;7322;50.872;4.386;2023-07-16T07:39:53;26.50;98.50
14473;DHT22;7322;50.872;4.386;2023-07-16T07:42:21;26.50;98.50
14473;DHT22;7322;50.872;4.386;2023-07-16T07:44:49;26.60;98.50
14473;DHT22;7322;50.872;4.386;2023-07-16T07:47:16;26.50;98.50
14473;DHT22;7322;50.872;4.386;2023-07-16T07:49:43;26.50;98.50
14473;DHT22;7322;50.872;4.386;2023-07-16T07:52:10;26.50;98.50
14473;DHT22;7322;50.872;4.386;2023-07-16T07:54:38;26.40;98.60
14473;DHT22;7322;50.872;4.386;2023-07-16T07:57:05;26.40;98.80
14473;DHT22;7322;50.872;4.386;2023-07-16T07:59:34;26.40;99.00
14473;DHT22;7322;50.872;4.386;2023-07-16T08:02:00;26.50;99.00
14473;DHT22;7322;50.872;4.386;2023-07-16T08:04:31;26.50;98.90
14473;DHT22;7322;50.872;4.386;2023-07-16T08:06:58;26.50;98.80
14473;DHT22;7322;50.872;4.386;2023-07-16T08:09:25;26.60;98.90
14473;DHT22;7322;50.872;4.386;2023-07-16T08:11:52;26.60;98.90
14473;DHT22;7322;50.872;4.386;2023-07-16T08:14:19;26.60;98.90
14473;DHT22;7322;50.872;4.386;2023-07-16T08:16:48;26.60;98.90
14473;DHT22;7322;50.872;4.386;2023-07-16T08:19:15;26.60;98.90
14473;DHT22;7322;50.872;4.386;2023-07-16T08:21:44;26.60;99.00
14473;DHT22;7322;50.872;4.386;2023-07-16T08:24:11;26.60;99.00
14473;DHT22;7322;50.872;4.386;2023-07-16T08:26:38;26.60;99.00
14473;DHT22;7322;50.872;4.386;2023-07-16T08:29:05;26.60;98.90
14473;DHT22;7322;50.872;4.386;2023-07-16T08:31:33;26.60;98.70
14473;DHT22;7322;50.872;4.386;2023-07-16T08:34:01;26.60;98.90
14473;DHT22;7322;50.872;4.386;2023-07-16T08:36:28;26.50;98.80
14473;DHT22;7322;50.872;4.386;2023-07-16T08:38:55;26.50;99.00
14473;DHT22;7322;50.872;4.386;2023-07-16T08:41:23;26.60;99.00
14473;DHT22;7322;50.872;4.386;2023-07-16T08:43:50;26.60;98.90
14473;DHT22;7322;50.872;4.386;2023-07-16T08:46:18;26.60;98.90
14473;DHT22;7322;50.872;4.386;2023-07-16T08:48:45;26.60;98.80
14473;DHT22;7322;50.872;4.386;2023-07-16T08:51:15;26.60;98.80
14473;DHT22;7322;50.872;4.386;2023-07-16T08:53:44;26.60;99.10
14473;DHT22;7322;50.872;4.386;2023-07-16T08:56:11;26.60;98.70
14473;DHT22;7322;50.872;4.386;2023-07-16T08:58:38;26.60;98.70
14473;DHT22;7322;50.872;4.386;2023-07-16T09:01:06;26.60;98.70
14473;DHT22;7322;50.872;4.386;2023-07-16T09:03:33;26.60;98.60
14473;DHT22;7322;50.872;4.386;2023-07-16T09:06:00;26.60;98.60
14473;DHT22;7322;50.872;4.386;2023-07-16T09:08:28;26.60;98.60
14473;DHT22;7322;50.872;4.386;2023-07-16T09:10:56;26.60;98.50
14473;DHT22;7322;50.872;4.386;2023-07-16T09:13:23;26.70;98.50
14473;DHT22;7322;50.872;4.386;2023-07-16T09:15:53;26.60;98.40
14473;DHT22;7322;50.872;4.386;2023-07-16T09:18:20;26.70;98.50
14473;DHT22;7322;50.872;4.386;2023-07-16T09:20:48;26.70;98.40
14473;DHT22;7322;50.872;4.386;2023-07-16T09:23:17;26.70;98.40
14473;DHT22;7322;50.872;4.386;2023-07-16T09:25:46;26.70;98.40
14473;DHT22;7322;50.872;4.386;2023-07-16T09:28:13;26.70;98.30
14473;DHT22;7322;50.872;4.386;2023-07-16T09:30:40;26.60;98.20
14473;DHT22;7322;50.872;4.386;2023-07-16T09:33:10;26.60;98.30
14473;DHT22;7322;50.872;4.386;2023-07-16T09:35:38;26.70;98.30
14473;DHT22;7322;50.872;4.386;2023-07-16T09:38:06;26.70;98.30
14473;DHT22;7322;50.872;4.386;2023-07-16T09:40:33;26.70;98.30
14473;DHT22;7322;50.872;4.386;2023-07-16T09:43:02;26.70;98.20
14473;DHT22;7322;50.872;4.386;2023-07-16T09:45:30;26.70;98.30
14473;DHT22;7322;50.872;4.386;2023-07-16T09:47:57;26.70;98.20
14473;DHT22;7322;50.872;4.386;2023-07-16T09:50:24;26.60;98.20
14473;DHT22;7322;50.872;4.386;2023-07-16T09:52:53;26.70;98.30
14473;DHT22;7322;50.872;4.386;2023-07-16T09:55:22;26.70;98.30
14473;DHT22;7322;50.872;4.386;2023-07-16T09:57:52;26.70;98.30
14473;DHT22;7322;50.872;4.386;2023-07-16T10:00:21;26.70;98.30
14473;DHT22;7322;50.872;4.386;2023-07-16T10:02:49;26.70;98.30
14473;DHT22;7322;50.872;4.386;2023-07-16T10:05:18;26.70;98.30
14473;DHT22;7322;50.872;4.386;2023-07-16T10:07:50;26.70;98.30
14473;DHT22;7322;50.872;4.386;2023-07-16T10:10:19;26.70;98.30
14473;DHT22;7322;50.872;4.386;2023-07-16T10:12:55;26.70;98.30
14473;DHT22;7322;50.872;4.386;2023-07-16T10:15:27;26.70;98.30
14473;DHT22;7322;50.872;4.386;2023-07-16T10:17:54;26.70;98.30
14473;DHT22;7322;50.872;4.386;2023-07-16T10:20:29;26.60;98.30
14473;DHT22;7322;50.872;4.386;2023-07-16T10:22:56;26.60;98.30
14473;DHT22;7322;50.872;4.386;2023-07-16T10:25:24;26.60;98.30
14473;DHT22;7322;50.872;4.386;2023-07-16T10:27:52;26.60;98.40
14473;DHT22;7322;50.872;4.386;2023-07-16T10:30:19;26.60;98.50
14473;DHT22;7322;50.872;4.386;2023-07-16T10:32:50;26.60;98.40
14473;DHT22;7322;50.872;4.386;2023-07-16T10:35:18;26.60;98.40
14473;DHT22;7322;50.872;4.386;2023-07-16T10:37:45;26.60;98.50
14473;DHT22;7322;50.872;4.386;2023-07-16T10:40:13;26.60;98.50
14473;DHT22;7322;50.872;4.386;2023-07-16T10:42:41;26.70;98.50
14473;DHT22;7322;50.872;4.386;2023-07-16T10:45:09;26.60;98.40
14473;DHT22;7322;50.872;4.386;2023-07-16T10:47:37;26.60;98.50
14473;DHT22;7322;50.872;4.386;2023-07-16T10:50:08;26.60;98.60
14473;DHT22;7322;50.872;4.386;2023-07-16T10:52:36;26.70;98.60
14473;DHT22;7322;50.872;4.386;2023-07-16T10:55:04;26.70;98.60
14473;DHT22;7322;50.872;4.386;2023-07-16T10:57:31;26.70;98.60
14473;DHT22;7322;50.872;4.386;2023-07-16T10:59:59;26.80;98.50
14473;DHT22;7322;50.872;4.386;2023-07-16T11:02:27;26.70;98.50
14473;DHT22;7322;50.872;4.386;2023-07-16T11:04:54;26.70;98.50
14473;DHT22;7322;50.872;4.386;2023-07-16T11:07:26;26.60;98.40
14473;DHT22;7322;50.872;4.386;2023-07-16T11:09:54;26.60;98.60
14473;DHT22;7322;50.872;4.386;2023-07-16T11:12:23;26.60;98.70
14473;DHT22;7322;50.872;4.386;2023-07-16T11:14:52;26.60;98.80
14473;DHT22;7322;50.872;4.386;2023-07-16T11:17:21;26.50;98.90
14473;DHT22;7322;50.872;4.386;2023-07-16T11:19:54;26.60;99.00
14473;DHT22;7322;50.872;4.386;2023-07-16T11:22:26;26.60;99.00
14473;DHT22;7322;50.872;4.386;2023-07-16T11:24:55;26.60;99.00
14473;DHT22;7322;50.872;4.386;2023-07-16T11:27:24;26.60;99.00
14473;DHT22;7322;50.872;4.386;2023-07-16T11:29:53;26.70;99.00
14473;DHT22;7322;50.872;4.386;2023-07-16T11:32:27;26.70;99.10
14473;DHT22;7322;50.872;4.386;2023-07-16T11:34:55;26.80;99.10
14473;DHT22;7322;50.872;4.386;2023-07-16T11:37:22;26.70;99.10
14473;DHT22;7322;50.872;4.386;2023-07-16T11:39:55;26.80;99.10
14473;DHT22;7322;50.872;4.386;2023-07-16T11:42:28;26.80;99.10
14473;DHT22;7322;50.872;4.386;2023-07-16T11:44:56;26.80;99.20
14473;DHT22;7322;50.872;4.386;2023-07-16T11:47:24;26.80;99.20
14473;DHT22;7322;50.872;4.386;2023-07-16T11:49:51;26.80;99.20
14473;DHT22;7322;50.872;4.386;2023-07-16T11:52:23;26.80;99.20
14473;DHT22;7322;50.872;4.386;2023-07-16T11:54:51;26.80;99.30
14473;DHT22;7322;50.872;4.386;2023-07-16T11:57:20;26.80;99.30
14473;DHT22;7322;50.872;4.386;2023-07-16T11:59:47;26.80;99.20
14473;DHT22;7322;50.872;4.386;2023-07-16T12:02:14;26.80;99.20
14473;DHT22;7322;50.872;4.386;2023-07-16T12:04:41;26.80;99.20
14473;DHT22;7322;50.872;4.386;2023-07-16T12:07:08;26.80;99.30
14473;DHT22;7322;50.872;4.386;2023-07-16T12:09:35;26.90;99.30
14473;DHT22;7322;50.872;4.386;2023-07-16T12:12:03;26.90;99.30
14473;DHT22;7322;50.872;4.386;2023-07-16T12:14:32;26.90;99.20
14473;DHT22;7322;50.872;4.386;2023-07-16T12:16:59;26.90;99.20
14473;DHT22;7322;50.872;4.386;2023-07-16T12:19:26;26.90;99.20
14473;DHT22;7322;50.872;4.386;2023-07-16T12:21:53;27.00;99.20
14473;DHT22;7322;50.872;4.386;2023-07-16T12:24:20;27.00;99.10
14473;DHT22;7322;50.872;4.386;2023-07-16T12:26:48;27.00;99.20
14473;DHT22;7322;50.872;4.386;2023-07-16T12:29:15;27.00;99.20
14473;DHT22;7322;50.872;4.386;2023-07-16T12:31:44;26.90;99.10
14473;DHT22;7322;50.872;4.386;2023-07-16T12:34:11;26.90;99.10
14473;DHT22;7322;50.872;4.386;2023-07-16T12:36:39;26.90;99.00
14473;DHT22;7322;50.872;4.386;2023-07-16T12:39:06;26.90;98.90
14473;DHT22;7322;50.872;4.386;2023-07-16T12:41:33;26.90;98.80
14473;DHT22;7322;50.872;4.386;2023-07-16T12:44:00;26.90;98.70
14473;DHT22;7322;50.872;4.386;2023-07-16T12:46:27;26.90;98.80
14473;DHT22;7322;50.872;4.386;2023-07-16T12:48:55;26.80;98.80
14473;DHT22;7322;50.872;4.386;2023-07-16T12:51:22;26.90;98.90
14473;DHT22;7322;50.872;4.386;2023-07-16T12:53:49;26.90;98.90
14473;DHT22;7322;50.872;4.386;2023-07-16T12:56:16;26.90;98.90
14473;DHT22;7322;50.872;4.386;2023-07-16T12:58:43;26.90;98.80
14473;DHT22;7322;50.872;4.386;2023-07-16T13:01:10;27.00;98.90
14473;DHT22;7322;50.872;4.386;2023-07-16T13:03:37;27.00;98.70
14473;DHT22;7322;50.872;4.386;2023-07-16T13:06:05;27.00;98.70
14473;DHT22;7322;50.872;4.386;2023-07-16T13:08:32;27.00;98.70
14473;DHT22;7322;50.872;4.386;2023-07-16T13:11:01;27.00;98.60
14473;DHT22;7322;50.872;4.386;2023-07-16T13:13:29;26.90;98.60
14473;DHT22;7322;50.872;4.386;2023-07-16T13:15:56;27.00;98.60
14473;DHT22;7322;50.872;4.386;2023-07-16T13:18:23;27.00;98.70
14473;DHT22;7322;50.872;4.386;2023-07-16T13:20:50;27.00;98.70
14473;DHT22;7322;50.872;4.386;2023-07-16T13:23:19;27.00;98.60
14473;DHT22;7322;50.872;4.386;2023-07-16T13:25:46;27.00;98.50
14473;DHT22;7322;50.872;4.386;2023-07-16T13:28:16;27.10;98.40
14473;DHT22;7322;50.872;4.386;2023-07-16T13:30:43;27.00;98.00
14473;DHT22;7322;50.872;4.386;2023-07-16T13:33:10;27.00;98.20
14473;DHT22;7322;50.872;4.386;2023-07-16T13:35:37;27.00;98.20
14473;DHT22;7322;50.872;4.386;2023-07-16T13:38:04;26.90;98.10
14473;DHT22;7322;50.872;4.386;2023-07-16T13:40:33;26.90;98.20
14473;DHT22;7322;50.872;4.386;2023-07-16T13:43:00;26.90;98.20
14473;DHT22;7322;50.872;4.386;2023-07-16T13:45:27;26.90;98.20
14473;DHT22;7322;50.872;4.386;2023-07-16T13:47:54;26.90;98.20
14473;DHT22;7322;50.872;4.386;2023-07-16T13:50:21;27.00;98.10
14473;DHT22;7322;50.872;4.386;2023-07-16T13:52:48;26.90;98.00
14473;DHT22;7322;50.872;4.386;2023-07-16T13:55:15;26.90;97.80
14473;DHT22;7322;50.872;4.386;2023-07-16T13:57:44;27.00;98.10
14473;DHT22;7322;50.872;4.386;2023-07-16T14:00:13;27.00;98.00
14473;DHT22;7322;50.872;4.386;2023-07-16T14:02:41;27.00;98.10
14473;DHT22;7322;50.872;4.386;2023-07-16T14:05:08;27.00;98.10
14473;DHT22;7322;50.872;4.386;2023-07-16T14:07:35;27.00;97.90
14473;DHT22;7322;50.872;4.386;2023-07-16T14:10:03;27.00;98.00
14473;DHT22;7322;50.872;4.386;2023-07-16T14:12:31;27.00;98.10
14473;DHT22;7322;50.872;4.386;2023-07-16T14:15:00;27.10;98.10
14473;DHT22;7322;50.872;4.386;2023-07-16T14:17:27;27.10;97.90
14473;DHT22;7322;50.872;4.386;2023-07-16T14:19:55;27.10;98.00
14473;DHT22;7322;50.872;4.386;2023-07-16T14:22:23;27.10;97.90
14473;DHT22;7322;50.872;4.386;2023-07-16T14:24:53;27.10;97.80
14473;DHT22;7322;50.872;4.386;2023-07-16T14:27:20;27.10;97.60
14473;DHT22;7322;50.872;4.386;2023-07-16T14:29:49;27.10;97.80
14473;DHT22;7322;50.872;4.386;2023-07-16T14:32:17;27.10;97.90
14473;DHT22;7322;50.872;4.386;2023-07-16T14:34:44;27.10;98.00
14473;DHT22;7322;50.872;4.386;2023-07-16T14:37:11;27.10;98.00
14473;DHT22;7322;50.872;4.386;2023-07-16T14:39:39;27.10;97.80
14473;DHT22;7322;50.872;4.386;2023-07-16T14:42:06;27.10;97.70
14473;DHT22;7322;50.872;4.386;2023-07-16T14:44:40;27.10;97.70
14473;DHT22;7322;50.872;4.386;2023-07-16T14:47:07;27.10;97.30
14473;DHT22;7322;50.872;4.386;2023-07-16T14:49:35;27.10;97.00
14473;DHT22;7322;50.872;4.386;2023-07-16T14:52:03;27.00;96.30
14473;DHT22;7322;50.872;4.386;2023-07-16T14:54:30;27.10;96.80
14473;DHT22;7322;50.872;4.386;2023-07-16T14:56:59;27.10;96.80
14473;DHT22;7322;50.872;4.386;2023-07-16T14:59:26;27.10;97.00
14473;DHT22;7322;50.872;4.386;2023-07-16T15:01:53;27.20;97.30
14473;DHT22;7322;50.872;4.386;2023-07-16T15:04:20;27.20;97.30
14473;DHT22;7322;50.872;4.386;2023-07-16T15:06:49;27.20;96.30
14473;DHT22;7322;50.872;4.386;2023-07-16T15:09:16;27.20;95.90
14473;DHT22;7322;50.872;4.386;2023-07-16T15:11:43;27.20;95.70
14473;DHT22;7322;50.872;4.386;2023-07-16T15:14:10;27.20;96.10
14473;DHT22;7322;50.872;4.386;2023-07-16T15:16:43;27.20;96.20
14473;DHT22;7322;50.872;4.386;2023-07-16T15:19:10;27.20;96.10
14473;DHT22;7322;50.872;4.386;2023-07-16T15:21:38;27.20;95.90
14473;DHT22;7322;50.872;4.386;2023-07-16T15:24:06;27.20;95.90
14473;DHT22;7322;50.872;4.386;2023-07-16T15:26:33;27.20;95.90
14473;DHT22;7322;50.872;4.386;2023-07-16T15:29:01;27.20;96.00
14473;DHT22;7322;50.872;4.386;2023-07-16T15:31:29;27.30;96.10
14473;DHT22;7322;50.872;4.386;2023-07-16T15:33:57;27.20;96.10
14473;DHT22;7322;50.872;4.386;2023-07-16T15:36:25;27.30;96.10
14473;DHT22;7322;50.872;4.386;2023-07-16T15:38:52;27.30;96.10
14473;DHT22;7322;50.872;4.386;2023-07-16T15:41:21;27.30;95.90
14473;DHT22;7322;50.872;4.386;2023-07-16T15:43:50;27.30;96.10
14473;DHT22;7322;50.872;4.386;2023-07-16T15:46:18;27.30;96.10
14473;DHT22;7322;50.872;4.386;2023-07-16T15:48:45;27.40;96.20
14473;DHT22;7322;50.872;4.386;2023-07-16T15:51:13;27.40;96.20